createdAt,value
2017-01-02T00:00:03.097Z,1013.05
2017-01-02T00:00:43.683Z,1013.02
2017-01-02T00:01:24.295Z,1013.01
2017-01-02T00:02:04.878Z,1013.04
2017-01-02T00:02:45.455Z,1013.01
2017-01-02T00:03:26.051Z,1013
2017-01-02T00:04:06.643Z,1013.01
2017-01-02T00:04:47.276Z,1013.01
2017-01-02T00:05:27.865Z,1013
2017-01-02T00:06:08.462Z,1013.01
2017-01-02T00:06:49.055Z,1013.01
2017-01-02T00:07:29.676Z,1013.04
2017-01-02T00:08:10.278Z,1012.99
2017-01-02T00:08:50.874Z,1013.04
2017-01-02T00:09:31.468Z,1013.04
2017-01-02T00:10:12.078Z,1013
2017-01-02T00:10:52.661Z,1013
2017-01-02T00:11:33.277Z,1013.01
2017-01-02T00:12:13.866Z,1012.98
2017-01-02T00:12:54.468Z,1013.02
2017-01-02T00:13:35.060Z,1013.02
2017-01-02T00:14:15.658Z,1013.02
2017-01-02T00:14:56.231Z,1013.04
2017-01-02T00:15:36.837Z,1013.01
2017-01-02T00:16:17.428Z,1013.01
2017-01-02T00:16:58.001Z,1013
2017-01-02T00:17:38.603Z,1013.01
2017-01-02T00:18:19.187Z,1012.96
2017-01-02T00:18:59.775Z,1012.99
2017-01-02T00:19:40.360Z,1012.98
2017-01-02T00:20:20.971Z,1012.93
2017-01-02T00:21:01.578Z,1012.95
2017-01-02T00:21:42.214Z,1013.01
2017-01-02T00:22:22.815Z,1012.96
2017-01-02T00:23:03.422Z,1012.96
2017-01-02T00:23:44.014Z,1012.96
2017-01-02T00:24:24.601Z,1012.98
2017-01-02T00:25:05.212Z,1013
2017-01-02T00:25:45.797Z,1012.98
2017-01-02T00:26:26.413Z,1012.98
2017-01-02T00:27:06.977Z,1012.99
2017-01-02T00:27:47.579Z,1012.96
2017-01-02T00:28:28.176Z,1012.95
2017-01-02T00:29:08.765Z,1012.95
2017-01-02T00:29:49.386Z,1012.93
2017-01-02T00:30:29.976Z,1012.94
2017-01-02T00:31:10.609Z,1012.92
2017-01-02T00:31:51.193Z,1012.91
2017-01-02T00:32:31.776Z,1012.93
2017-01-02T00:33:12.373Z,1012.91
2017-01-02T00:33:52.975Z,1012.92
2017-01-02T00:34:33.586Z,1012.89
2017-01-02T00:35:14.185Z,1012.89
2017-01-02T00:35:54.784Z,1012.9
2017-01-02T00:36:35.379Z,1012.9
2017-01-02T00:37:15.988Z,1012.89
2017-01-02T00:37:56.589Z,1012.9
2017-01-02T00:38:37.204Z,1012.88
2017-01-02T00:39:17.794Z,1012.92
2017-01-02T00:39:58.386Z,1012.93
2017-01-02T00:40:38.962Z,1012.95
2017-01-02T00:41:19.553Z,1012.94
2017-01-02T00:42:00.144Z,1012.96
2017-01-02T00:42:40.723Z,1013.02
2017-01-02T00:43:21.306Z,1012.97
2017-01-02T00:44:01.896Z,1012.98
2017-01-02T00:44:42.503Z,1012.99
2017-01-02T00:45:23.084Z,1012.98
2017-01-02T00:46:03.710Z,1012.96
2017-01-02T00:46:44.302Z,1012.95
2017-01-02T00:47:24.893Z,1012.94
2017-01-02T00:48:05.461Z,1012.94
2017-01-02T00:48:46.050Z,1012.93
2017-01-02T00:49:26.636Z,1012.9
2017-01-02T00:50:07.216Z,1012.91
2017-01-02T00:50:47.796Z,1012.88
2017-01-02T00:51:28.390Z,1012.9
2017-01-02T00:52:08.970Z,1012.9
2017-01-02T00:52:49.553Z,1012.9
2017-01-02T00:53:30.153Z,1012.89
2017-01-02T00:54:10.732Z,1012.92
2017-01-02T00:54:51.323Z,1012.9
2017-01-02T00:55:31.950Z,1012.87
2017-01-02T00:56:12.530Z,1012.86
2017-01-02T00:56:53.125Z,1012.87
2017-01-02T00:57:33.750Z,1012.86
2017-01-02T00:58:14.364Z,1012.89
2017-01-02T00:58:54.946Z,1012.88
2017-01-02T00:59:35.531Z,1012.85
2017-01-02T01:00:16.118Z,1012.85
2017-01-02T01:00:56.705Z,1012.87
2017-01-02T01:01:37.304Z,1012.88
2017-01-02T01:02:17.898Z,1012.9
2017-01-02T01:02:58.473Z,1012.92
2017-01-02T01:03:39.051Z,1012.91
2017-01-02T01:04:19.634Z,1012.9
2017-01-02T01:05:00.234Z,1012.92
2017-01-02T01:05:40.820Z,1012.92
2017-01-02T01:06:21.415Z,1012.87
2017-01-02T01:07:02.001Z,1012.87
2017-01-02T01:07:42.581Z,1012.89
2017-01-02T01:08:23.160Z,1012.88
2017-01-02T01:09:03.743Z,1012.93
2017-01-02T01:09:45.142Z,1012.95
2017-01-02T01:10:25.838Z,1012.92
2017-01-02T01:11:06.430Z,1012.91
2017-01-02T01:11:47.013Z,1012.94
2017-01-02T01:12:27.601Z,1012.91
2017-01-02T01:13:08.194Z,1012.91
2017-01-02T01:13:48.777Z,1012.9
2017-01-02T01:14:29.384Z,1012.88
2017-01-02T01:15:09.950Z,1012.87
2017-01-02T01:15:50.522Z,1012.87
2017-01-02T01:16:31.111Z,1012.87
2017-01-02T01:17:11.731Z,1012.85
2017-01-02T01:17:52.337Z,1012.88
2017-01-02T01:18:32.932Z,1012.83
2017-01-02T01:19:13.531Z,1012.88
2017-01-02T01:19:54.111Z,1012.9
2017-01-02T01:20:34.712Z,1012.94
2017-01-02T01:21:15.323Z,1012.94
2017-01-02T01:21:55.906Z,1012.93
2017-01-02T01:22:36.488Z,1012.91
2017-01-02T01:23:17.076Z,1012.92
2017-01-02T01:23:57.662Z,1012.91
2017-01-02T01:24:38.253Z,1012.92
2017-01-02T01:25:18.841Z,1012.96
2017-01-02T01:25:59.463Z,1012.93
2017-01-02T01:26:40.051Z,1012.99
2017-01-02T01:27:20.643Z,1012.95
2017-01-02T01:28:01.260Z,1012.98
2017-01-02T01:28:41.842Z,1012.97
2017-01-02T01:29:22.432Z,1013
2017-01-02T01:30:03.062Z,1012.98
2017-01-02T01:30:43.641Z,1012.97
2017-01-02T01:31:24.242Z,1012.98
2017-01-02T01:32:04.841Z,1012.99
2017-01-02T01:32:45.437Z,1012.98
2017-01-02T01:33:26.021Z,1013
2017-01-02T01:34:06.626Z,1013.05
2017-01-02T01:34:47.199Z,1013.04
2017-01-02T01:35:27.794Z,1013.05
2017-01-02T01:36:08.367Z,1013.06
2017-01-02T01:36:48.951Z,1013.06
2017-01-02T01:37:29.530Z,1013.09
2017-01-02T01:38:10.152Z,1013.08
2017-01-02T01:38:50.731Z,1013.06
2017-01-02T01:39:31.321Z,1013.04
2017-01-02T01:40:11.902Z,1013.03
2017-01-02T01:40:52.493Z,1013.01
2017-01-02T01:41:33.085Z,1013.05
2017-01-02T01:42:13.667Z,1013
2017-01-02T01:42:54.262Z,1013
2017-01-02T01:43:34.857Z,1013.01
2017-01-02T01:44:15.454Z,1013
2017-01-02T01:44:56.035Z,1013.02
2017-01-02T01:45:36.621Z,1013.01
2017-01-02T01:46:17.227Z,1013
2017-01-02T01:46:57.811Z,1012.99
2017-01-02T01:47:38.399Z,1012.99
2017-01-02T01:48:18.992Z,1012.98
2017-01-02T01:48:59.604Z,1013
2017-01-02T01:49:40.190Z,1012.99
2017-01-02T01:50:20.792Z,1012.99
2017-01-02T01:51:01.379Z,1013.01
2017-01-02T01:51:41.963Z,1013.02
2017-01-02T01:52:22.597Z,1012.96
2017-01-02T01:53:03.181Z,1012.98
2017-01-02T01:53:43.764Z,1012.98
2017-01-02T01:54:24.352Z,1013.04
2017-01-02T01:55:04.954Z,1013.03
2017-01-02T01:55:45.540Z,1013.05
2017-01-02T01:56:26.127Z,1013.08
2017-01-02T01:57:06.716Z,1013.1
2017-01-02T01:57:47.313Z,1013.09
2017-01-02T01:58:27.916Z,1013.08
2017-01-02T01:59:08.503Z,1013.08
2017-01-02T01:59:49.116Z,1013.08
2017-01-02T02:00:29.714Z,1013.05
2017-01-02T02:01:10.308Z,1013.03
2017-01-02T02:01:50.889Z,1013.04
2017-01-02T02:02:31.468Z,1013.03
2017-01-02T02:03:12.049Z,1013.02
2017-01-02T02:03:52.628Z,1013.01
2017-01-02T02:04:33.232Z,1013.03
2017-01-02T02:05:13.816Z,1012.97
2017-01-02T02:05:54.406Z,1012.98
2017-01-02T02:06:34.992Z,1013.03
2017-01-02T02:07:15.593Z,1013.02
2017-01-02T02:07:56.210Z,1013.05
2017-01-02T02:08:36.790Z,1013.01
2017-01-02T02:09:17.390Z,1013.02
2017-01-02T02:09:57.976Z,1013.03
2017-01-02T02:10:38.574Z,1013.03
2017-01-02T02:11:19.149Z,1013.01
2017-01-02T02:11:59.750Z,1013.02
2017-01-02T02:12:40.350Z,1012.98
2017-01-02T02:13:20.932Z,1013.01
2017-01-02T02:14:01.527Z,1013.05
2017-01-02T02:14:42.107Z,1013.02
2017-01-02T02:15:22.690Z,1013.01
2017-01-02T02:16:03.283Z,1013
2017-01-02T02:16:43.866Z,1013
2017-01-02T02:17:24.459Z,1013.01
2017-01-02T02:18:05.058Z,1012.99
2017-01-02T02:18:45.659Z,1013.01
2017-01-02T02:19:26.249Z,1013.01
2017-01-02T02:20:06.838Z,1013.03
2017-01-02T02:20:47.426Z,1013.06
2017-01-02T02:21:28.010Z,1013.01
2017-01-02T02:22:08.607Z,1013.01
2017-01-02T02:22:49.196Z,1013.03
2017-01-02T02:23:29.779Z,1013.03
2017-01-02T02:24:10.369Z,1013.04
2017-01-02T02:24:50.949Z,1013.05
2017-01-02T02:25:31.545Z,1013
2017-01-02T02:26:12.134Z,1013.02
2017-01-02T02:26:52.738Z,1013
2017-01-02T02:27:33.324Z,1013.01
2017-01-02T02:28:13.933Z,1012.99
2017-01-02T02:28:54.545Z,1012.98
2017-01-02T02:29:35.141Z,1012.99
2017-01-02T02:30:15.759Z,1012.97
2017-01-02T02:30:56.352Z,1012.97
2017-01-02T02:31:36.944Z,1012.98
2017-01-02T02:32:17.541Z,1012.97
2017-01-02T02:32:58.152Z,1012.98
2017-01-02T02:33:38.741Z,1012.98
2017-01-02T02:34:19.353Z,1012.95
2017-01-02T02:34:59.954Z,1012.98
2017-01-02T02:35:40.560Z,1012.97
2017-01-02T02:36:21.155Z,1012.95
2017-01-02T02:37:01.766Z,1012.97
2017-01-02T02:37:42.358Z,1012.98
2017-01-02T02:38:22.974Z,1012.99
2017-01-02T02:39:03.567Z,1012.97
2017-01-02T02:39:44.178Z,1012.96
2017-01-02T02:40:24.765Z,1012.97
2017-01-02T02:41:05.367Z,1012.94
2017-01-02T02:41:45.974Z,1012.92
2017-01-02T02:42:26.575Z,1012.94
2017-01-02T02:43:07.140Z,1012.93
2017-01-02T02:43:47.739Z,1012.92
2017-01-02T02:44:28.330Z,1012.95
2017-01-02T02:45:08.912Z,1012.95
2017-01-02T02:45:49.490Z,1012.95
2017-01-02T02:46:30.085Z,1012.95
2017-01-02T02:47:10.690Z,1012.96
2017-01-02T02:47:51.326Z,1012.95
2017-01-02T02:48:31.950Z,1012.96
2017-01-02T02:49:12.548Z,1012.97
2017-01-02T02:49:53.148Z,1012.99
2017-01-02T02:50:33.752Z,1012.96
2017-01-02T02:51:14.349Z,1012.93
2017-01-02T02:51:54.986Z,1012.92
2017-01-02T02:52:35.591Z,1012.95
2017-01-02T02:53:16.174Z,1012.98
2017-01-02T02:53:56.764Z,1012.98
2017-01-02T02:54:37.364Z,1012.97
2017-01-02T02:55:17.958Z,1012.97
2017-01-02T02:55:58.546Z,1012.98
2017-01-02T02:56:39.125Z,1012.95
2017-01-02T02:57:19.706Z,1012.94
2017-01-02T02:58:00.319Z,1012.95
2017-01-02T02:58:40.930Z,1012.94
2017-01-02T02:59:21.516Z,1012.92
2017-01-02T03:00:02.127Z,1012.93
2017-01-02T03:00:42.717Z,1012.9
2017-01-02T03:01:23.306Z,1012.92
2017-01-02T03:02:03.883Z,1012.92
2017-01-02T03:02:44.483Z,1012.92
2017-01-02T03:03:25.069Z,1012.91
2017-01-02T03:04:05.643Z,1012.94
2017-01-02T03:04:46.220Z,1012.97
2017-01-02T03:05:26.812Z,1012.95
2017-01-02T03:06:07.397Z,1012.97
2017-01-02T03:06:47.976Z,1012.96
2017-01-02T03:07:28.551Z,1012.97
2017-01-02T03:08:09.143Z,1012.91
2017-01-02T03:08:49.736Z,1012.96
2017-01-02T03:09:30.319Z,1012.94
2017-01-02T03:10:10.936Z,1012.92
2017-01-02T03:10:51.552Z,1012.94
2017-01-02T03:11:32.143Z,1012.93
2017-01-02T03:12:12.750Z,1012.91
2017-01-02T03:12:53.346Z,1012.95
2017-01-02T03:13:33.934Z,1012.89
2017-01-02T03:14:14.513Z,1012.9
2017-01-02T03:14:55.101Z,1012.88
2017-01-02T03:15:35.711Z,1012.91
2017-01-02T03:16:16.315Z,1012.89
2017-01-02T03:16:56.911Z,1012.89
2017-01-02T03:17:37.504Z,1012.85
2017-01-02T03:18:18.092Z,1012.93
2017-01-02T03:18:58.673Z,1012.92
2017-01-02T03:19:39.282Z,1012.91
2017-01-02T03:20:19.858Z,1012.92
2017-01-02T03:21:00.488Z,1012.92
2017-01-02T03:21:41.062Z,1012.9
2017-01-02T03:22:21.658Z,1012.92
2017-01-02T03:23:02.250Z,1012.92
2017-01-02T03:23:42.848Z,1012.92
2017-01-02T03:24:23.422Z,1012.88
2017-01-02T03:25:04.039Z,1012.91
2017-01-02T03:25:44.623Z,1012.88
2017-01-02T03:26:25.199Z,1012.89
2017-01-02T03:27:05.793Z,1012.92
2017-01-02T03:27:46.382Z,1012.89
2017-01-02T03:28:26.963Z,1012.92
2017-01-02T03:29:07.552Z,1012.89
2017-01-02T03:29:48.136Z,1012.9
2017-01-02T03:30:28.739Z,1012.86
2017-01-02T03:31:09.334Z,1012.87
2017-01-02T03:31:49.911Z,1012.84
2017-01-02T03:32:30.518Z,1012.86
2017-01-02T03:33:11.104Z,1012.86
2017-01-02T03:33:51.685Z,1012.84
2017-01-02T03:34:32.276Z,1012.85
2017-01-02T03:35:12.855Z,1012.82
2017-01-02T03:35:53.438Z,1012.8
2017-01-02T03:36:34.035Z,1012.83
2017-01-02T03:37:14.615Z,1012.84
2017-01-02T03:37:55.203Z,1012.82
2017-01-02T03:38:35.781Z,1012.83
2017-01-02T03:39:16.366Z,1012.78
2017-01-02T03:39:56.950Z,1012.82
2017-01-02T03:40:37.530Z,1012.82
2017-01-02T03:41:18.114Z,1012.8
2017-01-02T03:41:58.701Z,1012.8
2017-01-02T03:42:39.289Z,1012.8
2017-01-02T03:43:19.869Z,1012.79
2017-01-02T03:44:00.456Z,1012.78
2017-01-02T03:44:41.039Z,1012.75
2017-01-02T03:45:21.632Z,1012.76
2017-01-02T03:46:02.221Z,1012.76
2017-01-02T03:46:42.802Z,1012.74
2017-01-02T03:47:23.394Z,1012.77
2017-01-02T03:48:03.981Z,1012.77
2017-01-02T03:48:44.564Z,1012.77
2017-01-02T03:49:25.157Z,1012.73
2017-01-02T03:50:05.754Z,1012.74
2017-01-02T03:50:46.346Z,1012.66
2017-01-02T03:51:26.950Z,1012.67
2017-01-02T03:52:07.526Z,1012.64
2017-01-02T03:52:48.141Z,1012.65
2017-01-02T03:53:28.728Z,1012.67
2017-01-02T03:54:09.319Z,1012.66
2017-01-02T03:54:49.925Z,1012.67
2017-01-02T03:55:30.539Z,1012.7
2017-01-02T03:56:11.126Z,1012.65
2017-01-02T03:56:51.713Z,1012.67
2017-01-02T03:57:32.310Z,1012.7
2017-01-02T03:58:12.885Z,1012.68
2017-01-02T03:58:53.483Z,1012.68
2017-01-02T03:59:34.067Z,1012.67
2017-01-02T04:00:14.654Z,1012.68
2017-01-02T04:00:55.231Z,1012.72
2017-01-02T04:01:35.827Z,1012.72
2017-01-02T04:02:16.433Z,1012.74
2017-01-02T04:02:57.042Z,1012.69
2017-01-02T04:03:37.637Z,1012.68
2017-01-02T04:04:18.222Z,1012.75
2017-01-02T04:04:58.802Z,1012.73
2017-01-02T04:05:39.403Z,1012.7
2017-01-02T04:06:19.973Z,1012.72
2017-01-02T04:07:00.550Z,1012.74
2017-01-02T04:07:41.140Z,1012.77
2017-01-02T04:08:21.724Z,1012.77
2017-01-02T04:09:02.309Z,1012.81
2017-01-02T04:09:42.899Z,1012.79
2017-01-02T04:10:23.464Z,1012.78
2017-01-02T04:11:04.064Z,1012.76
2017-01-02T04:11:44.654Z,1012.81
2017-01-02T04:12:25.254Z,1012.8
2017-01-02T04:13:05.855Z,1012.81
2017-01-02T04:13:46.437Z,1012.85
2017-01-02T04:14:27.018Z,1012.83
2017-01-02T04:15:07.627Z,1012.83
2017-01-02T04:15:48.212Z,1012.84
2017-01-02T04:16:28.813Z,1012.84
2017-01-02T04:17:09.416Z,1012.82
2017-01-02T04:17:49.983Z,1012.8
2017-01-02T04:18:30.578Z,1012.83
2017-01-02T04:19:11.172Z,1012.81
2017-01-02T04:19:51.779Z,1012.79
2017-01-02T04:20:32.380Z,1012.82
2017-01-02T04:21:12.983Z,1012.83
2017-01-02T04:21:53.579Z,1012.83
2017-01-02T04:22:34.174Z,1012.82
2017-01-02T04:23:14.760Z,1012.8
2017-01-02T04:23:55.358Z,1012.81
2017-01-02T04:24:35.959Z,1012.78
2017-01-02T04:25:16.551Z,1012.83
2017-01-02T04:25:57.147Z,1012.81
2017-01-02T04:26:37.773Z,1012.83
2017-01-02T04:27:18.353Z,1012.83
2017-01-02T04:27:58.962Z,1012.87
2017-01-02T04:28:39.563Z,1012.86
2017-01-02T04:29:20.162Z,1012.85
2017-01-02T04:30:00.742Z,1012.85
2017-01-02T04:30:41.320Z,1012.8
2017-01-02T04:31:21.906Z,1012.86
2017-01-02T04:32:02.508Z,1012.82
2017-01-02T04:32:43.137Z,1012.84
2017-01-02T04:33:23.724Z,1012.84
2017-01-02T04:34:04.324Z,1012.85
2017-01-02T04:34:44.919Z,1012.84
2017-01-02T04:35:25.510Z,1012.85
2017-01-02T04:36:06.107Z,1012.84
2017-01-02T04:36:46.688Z,1012.87
2017-01-02T04:37:27.302Z,1012.82
2017-01-02T04:38:07.882Z,1012.81
2017-01-02T04:38:48.480Z,1012.84
2017-01-02T04:39:29.089Z,1012.84
2017-01-02T04:40:09.684Z,1012.8
2017-01-02T04:40:50.285Z,1012.75
2017-01-02T04:41:30.910Z,1012.76
2017-01-02T04:42:11.486Z,1012.75
2017-01-02T04:42:52.074Z,1012.75
2017-01-02T04:43:32.672Z,1012.77
2017-01-02T04:44:13.250Z,1012.8
2017-01-02T04:44:53.845Z,1012.79
2017-01-02T04:45:34.444Z,1012.77
2017-01-02T04:46:15.033Z,1012.8
2017-01-02T04:46:55.629Z,1012.79
2017-01-02T04:47:36.212Z,1012.77
2017-01-02T04:48:16.803Z,1012.76
2017-01-02T04:48:57.403Z,1012.74
2017-01-02T04:49:38.001Z,1012.73
2017-01-02T04:50:18.579Z,1012.76
2017-01-02T04:50:59.159Z,1012.72
2017-01-02T04:51:39.755Z,1012.71
2017-01-02T04:52:20.365Z,1012.74
2017-01-02T04:53:00.954Z,1012.75
2017-01-02T04:53:41.566Z,1012.71
2017-01-02T04:54:22.150Z,1012.72
2017-01-02T04:55:02.748Z,1012.71
2017-01-02T04:55:43.364Z,1012.7
2017-01-02T04:56:23.951Z,1012.7
2017-01-02T04:57:04.558Z,1012.71
2017-01-02T04:57:45.157Z,1012.73
2017-01-02T04:58:25.767Z,1012.74
2017-01-02T04:59:06.370Z,1012.79
2017-01-02T04:59:46.991Z,1012.77
2017-01-02T05:00:27.594Z,1012.74
2017-01-02T05:01:08.182Z,1012.76
2017-01-02T05:01:48.808Z,1012.77
2017-01-02T05:02:29.392Z,1012.74
2017-01-02T05:03:09.990Z,1012.75
2017-01-02T05:03:50.575Z,1012.76
2017-01-02T05:04:31.156Z,1012.73
2017-01-02T05:05:11.737Z,1012.77
2017-01-02T05:05:52.322Z,1012.76
2017-01-02T05:06:32.913Z,1012.81
2017-01-02T05:07:13.512Z,1012.78
2017-01-02T05:07:54.106Z,1012.82
2017-01-02T05:08:34.695Z,1012.84
2017-01-02T05:09:15.285Z,1012.83
2017-01-02T05:09:55.893Z,1012.84
2017-01-02T05:10:36.476Z,1012.82
2017-01-02T05:11:17.094Z,1012.83
2017-01-02T05:11:57.685Z,1012.84
2017-01-02T05:12:38.288Z,1012.88
2017-01-02T05:13:18.866Z,1012.84
2017-01-02T05:13:59.447Z,1012.85
2017-01-02T05:14:40.030Z,1012.84
2017-01-02T05:15:20.618Z,1012.86
2017-01-02T05:16:01.198Z,1012.81
2017-01-02T05:16:41.799Z,1012.85
2017-01-02T05:17:22.380Z,1012.89
2017-01-02T05:18:02.973Z,1012.91
2017-01-02T05:18:43.558Z,1012.93
2017-01-02T05:19:24.147Z,1012.93
2017-01-02T05:20:04.745Z,1012.94
2017-01-02T05:20:45.331Z,1012.98
2017-01-02T05:21:25.912Z,1012.94
2017-01-02T05:22:06.506Z,1012.94
2017-01-02T05:22:47.105Z,1012.92
2017-01-02T05:23:27.683Z,1012.97
2017-01-02T05:24:08.265Z,1013
2017-01-02T05:24:48.858Z,1013.01
2017-01-02T05:25:29.432Z,1012.97
2017-01-02T05:26:10.022Z,1013.02
2017-01-02T05:26:50.638Z,1013.04
2017-01-02T05:27:31.236Z,1013
2017-01-02T05:28:11.838Z,1013.01
2017-01-02T05:28:52.421Z,1013.05
2017-01-02T05:29:33.017Z,1013.02
2017-01-02T05:30:13.648Z,1013.03
2017-01-02T05:30:54.235Z,1013.03
2017-01-02T05:31:34.827Z,1013.02
2017-01-02T05:32:15.406Z,1013.02
2017-01-02T05:32:55.990Z,1013.03
2017-01-02T05:33:36.583Z,1013.04
2017-01-02T05:34:17.156Z,1013.08
2017-01-02T05:34:57.737Z,1013.05
2017-01-02T05:35:38.337Z,1013.08
2017-01-02T05:36:18.920Z,1013.05
2017-01-02T05:36:59.501Z,1013.07
2017-01-02T05:37:40.113Z,1013.07
2017-01-02T05:38:20.695Z,1013.04
2017-01-02T05:39:01.283Z,1013.06
2017-01-02T05:39:41.865Z,1013.06
2017-01-02T05:40:22.467Z,1013.1
2017-01-02T05:41:03.059Z,1013.1
2017-01-02T05:41:43.672Z,1013.11
2017-01-02T05:42:24.267Z,1013.14
2017-01-02T05:43:04.857Z,1013.13
2017-01-02T05:43:45.476Z,1013.17
2017-01-02T05:44:26.066Z,1013.16
2017-01-02T05:45:06.646Z,1013.18
2017-01-02T05:45:47.226Z,1013.2
2017-01-02T05:46:27.807Z,1013.2
2017-01-02T05:47:08.403Z,1013.19
2017-01-02T05:47:48.991Z,1013.2
2017-01-02T05:48:29.604Z,1013.18
2017-01-02T05:49:10.185Z,1013.16
2017-01-02T05:49:50.769Z,1013.15
2017-01-02T05:50:31.387Z,1013.19
2017-01-02T05:51:11.975Z,1013.18
2017-01-02T05:51:52.558Z,1013.2
2017-01-02T05:52:33.141Z,1013.19
2017-01-02T05:53:13.736Z,1013.17
2017-01-02T05:53:54.327Z,1013.18
2017-01-02T05:54:34.914Z,1013.18
2017-01-02T05:55:15.499Z,1013.15
2017-01-02T05:55:56.108Z,1013.19
2017-01-02T05:56:36.701Z,1013.15
2017-01-02T05:57:17.297Z,1013.17
2017-01-02T05:57:57.885Z,1013.17
2017-01-02T05:58:38.487Z,1013.15
2017-01-02T05:59:19.085Z,1013.15
2017-01-02T05:59:59.675Z,1013.15
2017-01-02T06:00:40.251Z,1013.14
2017-01-02T06:01:20.843Z,1013.16
2017-01-02T06:02:01.419Z,1013.14
2017-01-02T06:02:42.001Z,1013.16
2017-01-02T06:03:22.594Z,1013.13
2017-01-02T06:04:03.185Z,1013.16
2017-01-02T06:04:43.771Z,1013.21
2017-01-02T06:05:24.371Z,1013.19
2017-01-02T06:06:04.976Z,1013.2
2017-01-02T06:06:45.566Z,1013.22
2017-01-02T06:07:26.161Z,1013.23
2017-01-02T06:08:06.757Z,1013.21
2017-01-02T06:08:47.341Z,1013.18
2017-01-02T06:09:27.930Z,1013.23
2017-01-02T06:10:08.509Z,1013.22
2017-01-02T06:10:49.101Z,1013.23
2017-01-02T06:11:29.675Z,1013.21
2017-01-02T06:12:10.298Z,1013.22
2017-01-02T06:12:50.892Z,1013.22
2017-01-02T06:13:31.481Z,1013.22
2017-01-02T06:14:12.068Z,1013.2
2017-01-02T06:14:52.650Z,1013.22
2017-01-02T06:15:33.229Z,1013.2
2017-01-02T06:16:13.801Z,1013.19
2017-01-02T06:16:54.385Z,1013.23
2017-01-02T06:17:34.963Z,1013.19
2017-01-02T06:18:15.552Z,1013.21
2017-01-02T06:18:56.139Z,1013.22
2017-01-02T06:19:36.711Z,1013.21
2017-01-02T06:20:17.290Z,1013.23
2017-01-02T06:20:57.885Z,1013.22
2017-01-02T06:21:38.469Z,1013.23
2017-01-02T06:22:19.049Z,1013.17
2017-01-02T06:22:59.640Z,1013.16
2017-01-02T06:23:40.214Z,1013.16
2017-01-02T06:24:20.795Z,1013.2
2017-01-02T06:25:01.380Z,1013.2
2017-01-02T06:25:41.967Z,1013.2
2017-01-02T06:26:22.554Z,1013.21
2017-01-02T06:27:03.145Z,1013.22
2017-01-02T06:27:43.733Z,1013.29
2017-01-02T06:28:24.337Z,1013.25
2017-01-02T06:29:04.910Z,1013.24
2017-01-02T06:29:45.502Z,1013.31
2017-01-02T06:30:26.112Z,1013.33
2017-01-02T06:31:06.696Z,1013.32
2017-01-02T06:31:47.304Z,1013.31
2017-01-02T06:32:27.910Z,1013.27
2017-01-02T06:33:08.490Z,1013.33
2017-01-02T06:33:49.123Z,1013.34
2017-01-02T06:34:29.734Z,1013.36
2017-01-02T06:35:10.321Z,1013.34
2017-01-02T06:35:50.912Z,1013.35
2017-01-02T06:36:31.513Z,1013.32
2017-01-02T06:37:12.102Z,1013.34
2017-01-02T06:37:52.685Z,1013.33
2017-01-02T06:38:33.272Z,1013.3
2017-01-02T06:39:13.873Z,1013.37
2017-01-02T06:39:54.477Z,1013.38
2017-01-02T06:40:35.071Z,1013.39
2017-01-02T06:41:15.662Z,1013.43
2017-01-02T06:41:56.244Z,1013.41
2017-01-02T06:42:36.839Z,1013.44
2017-01-02T06:43:17.443Z,1013.47
2017-01-02T06:43:58.046Z,1013.46
2017-01-02T06:44:38.639Z,1013.45
2017-01-02T06:45:19.234Z,1013.47
2017-01-02T06:45:59.838Z,1013.48
2017-01-02T06:46:40.423Z,1013.48
2017-01-02T06:47:21.005Z,1013.43
2017-01-02T06:48:01.597Z,1013.47
2017-01-02T06:48:42.193Z,1013.48
2017-01-02T06:49:22.769Z,1013.49
2017-01-02T06:50:03.366Z,1013.47
2017-01-02T06:50:43.964Z,1013.45
2017-01-02T06:51:24.555Z,1013.47
2017-01-02T06:52:05.162Z,1013.44
2017-01-02T06:52:45.790Z,1013.47
2017-01-02T06:53:26.372Z,1013.46
2017-01-02T06:54:06.987Z,1013.45
2017-01-02T06:54:47.562Z,1013.47
2017-01-02T06:55:28.167Z,1013.48
2017-01-02T06:56:08.751Z,1013.5
2017-01-02T06:56:49.374Z,1013.5
2017-01-02T06:57:29.965Z,1013.47
2017-01-02T06:58:10.563Z,1013.47
2017-01-02T06:58:51.155Z,1013.48
2017-01-02T06:59:31.769Z,1013.44
2017-01-02T07:00:12.366Z,1013.45
2017-01-02T07:00:52.973Z,1013.42
2017-01-02T07:01:33.570Z,1013.48
2017-01-02T07:02:14.141Z,1013.49
2017-01-02T07:02:54.742Z,1013.46
2017-01-02T07:03:35.330Z,1013.48
2017-01-02T07:04:15.940Z,1013.51
2017-01-02T07:04:56.539Z,1013.53
2017-01-02T07:05:37.110Z,1013.48
2017-01-02T07:06:17.704Z,1013.47
2017-01-02T07:06:58.296Z,1013.53
2017-01-02T07:07:38.879Z,1013.52
2017-01-02T07:08:19.487Z,1013.54
2017-01-02T07:09:00.087Z,1013.5
2017-01-02T07:09:40.699Z,1013.51
2017-01-02T07:10:21.296Z,1013.53
2017-01-02T07:11:01.908Z,1013.48
2017-01-02T07:11:42.515Z,1013.51
2017-01-02T07:12:23.125Z,1013.49
2017-01-02T07:13:03.713Z,1013.49
2017-01-02T07:13:44.295Z,1013.52
2017-01-02T07:14:24.899Z,1013.51
2017-01-02T07:15:05.491Z,1013.55
2017-01-02T07:15:46.083Z,1013.55
2017-01-02T07:16:26.695Z,1013.58
2017-01-02T07:17:07.283Z,1013.55
2017-01-02T07:17:47.868Z,1013.53
2017-01-02T07:18:28.470Z,1013.53
2017-01-02T07:19:09.052Z,1013.54
2017-01-02T07:19:49.644Z,1013.53
2017-01-02T07:20:30.244Z,1013.55
2017-01-02T07:21:10.828Z,1013.56
2017-01-02T07:21:51.430Z,1013.54
2017-01-02T07:22:32.025Z,1013.51
2017-01-02T07:23:12.617Z,1013.54
2017-01-02T07:23:53.199Z,1013.5
2017-01-02T07:24:33.796Z,1013.54
2017-01-02T07:25:14.385Z,1013.53
2017-01-02T07:25:54.986Z,1013.55
2017-01-02T07:26:35.570Z,1013.55
2017-01-02T07:27:16.163Z,1013.58
2017-01-02T07:27:56.765Z,1013.59
2017-01-02T07:28:37.379Z,1013.62
2017-01-02T07:29:17.951Z,1013.67
2017-01-02T07:29:58.540Z,1013.62
2017-01-02T07:30:39.124Z,1013.61
2017-01-02T07:31:19.716Z,1013.63
2017-01-02T07:32:00.300Z,1013.62
2017-01-02T07:32:40.874Z,1013.67
2017-01-02T07:33:21.456Z,1013.66
2017-01-02T07:34:02.059Z,1013.73
2017-01-02T07:34:42.630Z,1013.71
2017-01-02T07:35:23.242Z,1013.72
2017-01-02T07:36:03.832Z,1013.73
2017-01-02T07:36:44.434Z,1013.75
2017-01-02T07:37:25.001Z,1013.76
2017-01-02T07:38:05.580Z,1013.75
2017-01-02T07:38:46.160Z,1013.76
2017-01-02T07:39:26.763Z,1013.78
2017-01-02T07:40:07.354Z,1013.75
2017-01-02T07:40:47.965Z,1013.8
2017-01-02T07:41:28.565Z,1013.73
2017-01-02T07:42:09.157Z,1013.75
2017-01-02T07:42:49.758Z,1013.75
2017-01-02T07:43:30.354Z,1013.74
2017-01-02T07:44:10.940Z,1013.76
2017-01-02T07:44:51.531Z,1013.76
2017-01-02T07:45:32.140Z,1013.79
2017-01-02T07:46:12.778Z,1013.75
2017-01-02T07:46:53.360Z,1013.78
2017-01-02T07:47:33.972Z,1013.78
2017-01-02T07:48:14.570Z,1013.76
2017-01-02T07:48:55.173Z,1013.77
2017-01-02T07:49:35.767Z,1013.74
2017-01-02T07:50:16.371Z,1013.72
2017-01-02T07:50:56.962Z,1013.73
2017-01-02T07:51:37.559Z,1013.75
2017-01-02T07:52:18.154Z,1013.74
2017-01-02T07:52:58.747Z,1013.73
2017-01-02T07:53:39.338Z,1013.69
2017-01-02T07:54:19.936Z,1013.71
2017-01-02T07:55:00.514Z,1013.73
2017-01-02T07:55:41.106Z,1013.71
2017-01-02T07:56:21.694Z,1013.76
2017-01-02T07:57:02.293Z,1013.77
2017-01-02T07:57:42.885Z,1013.77
2017-01-02T07:58:23.474Z,1013.8
2017-01-02T07:59:04.069Z,1013.8
2017-01-02T07:59:44.668Z,1013.81
2017-01-02T08:00:25.280Z,1013.8
2017-01-02T08:01:06.084Z,1013.81
2017-01-02T08:01:46.777Z,1013.83
2017-01-02T08:02:27.370Z,1013.8
2017-01-02T08:03:07.956Z,1013.84
2017-01-02T08:03:48.568Z,1013.82
2017-01-02T08:04:29.142Z,1013.84
2017-01-02T08:05:09.724Z,1013.86
2017-01-02T08:05:50.312Z,1013.86
2017-01-02T08:06:30.917Z,1013.89
2017-01-02T08:07:11.532Z,1013.88
2017-01-02T08:07:52.129Z,1013.89
2017-01-02T08:08:32.730Z,1013.89
2017-01-02T08:09:13.342Z,1013.87
2017-01-02T08:09:53.949Z,1013.88
2017-01-02T08:10:34.538Z,1013.9
2017-01-02T08:11:15.118Z,1013.89
2017-01-02T08:11:55.707Z,1013.88
2017-01-02T08:12:36.300Z,1013.89
2017-01-02T08:13:16.876Z,1013.9